sensor_id;sensor_type;location;lat;lon;timestamp;temperature;humidity
13482;DHT22;6813;60.352;15.746;2023-03-19T00:00:16;1.50;99.90
13482;DHT22;6813;60.352;15.746;2023-03-19T00:02:42;1.50;99.90
13482;DHT22;6813;60.352;15.746;2023-03-19T00:05:14;1.50;99.90
13482;DHT22;6813;60.352;15.746;2023-03-19T00:07:40;1.50;99.90
13482;DHT22;6813;60.352;15.746;2023-03-19T00:10:06;1.50;99.90
13482;DHT22;6813;60.352;15.746;2023-03-19T00:12:32;1.50;99.90
13482;DHT22;6813;60.352;15.746;2023-03-19T00:14:57;1.50;99.90
13482;DHT22;6813;60.352;15.746;2023-03-19T00:17:23;1.60;99.90
13482;DHT22;6813;60.352;15.746;2023-03-19T00:19:49;1.60;99.90
13482;DHT22;6813;60.352;15.746;2023-03-19T00:22:14;1.60;99.90
13482;DHT22;6813;60.352;15.746;2023-03-19T00:24:40;1.50;99.90
13482;DHT22;6813;60.352;15.746;2023-03-19T00:27:06;1.50;99.90
13482;DHT22;6813;60.352;15.746;2023-03-19T00:29:32;1.50;99.90
13482;DHT22;6813;60.352;15.746;2023-03-19T00:31:58;1.40;99.90
13482;DHT22;6813;60.352;15.746;2023-03-19T00:34:23;1.40;99.90
13482;DHT22;6813;60.352;15.746;2023-03-19T00:36:49;1.40;99.90
13482;DHT22;6813;60.352;15.746;2023-03-19T00:39:15;1.30;99.90
13482;DHT22;6813;60.352;15.746;2023-03-19T00:41:40;1.30;99.90
13482;DHT22;6813;60.352;15.746;2023-03-19T00:44:06;1.30;99.90
13482;DHT22;6813;60.352;15.746;2023-03-19T00:46:32;1.20;99.90
13482;DHT22;6813;60.352;15.746;2023-03-19T00:48:58;1.30;99.90
13482;DHT22;6813;60.352;15.746;2023-03-19T00:51:24;1.20;99.90
13482;DHT22;6813;60.352;15.746;2023-03-19T00:53:50;1.20;99.90
13482;DHT22;6813;60.352;15.746;2023-03-19T00:56:17;1.10;99.90
13482;DHT22;6813;60.352;15.746;2023-03-19T00:58:43;1.10;99.90
13482;DHT22;6813;60.352;15.746;2023-03-19T01:01:11;1.10;99.90
13482;DHT22;6813;60.352;15.746;2023-03-19T01:03:37;1.10;99.90
13482;DHT22;6813;60.352;15.746;2023-03-19T01:06:05;1.10;99.90
13482;DHT22;6813;60.352;15.746;2023-03-19T01:08:31;1.20;99.90
13482;DHT22;6813;60.352;15.746;2023-03-19T01:11:11;1.20;99.90
13482;DHT22;6813;60.352;15.746;2023-03-19T01:13:39;1.30;99.90
13482;DHT22;6813;60.352;15.746;2023-03-19T01:16:05;1.30;99.90
13482;DHT22;6813;60.352;15.746;2023-03-19T01:18:31;1.40;99.90
13482;DHT22;6813;60.352;15.746;2023-03-19T01:20:57;1.20;99.90
13482;DHT22;6813;60.352;15.746;2023-03-19T01:23:23;1.10;99.90
13482;DHT22;6813;60.352;15.746;2023-03-19T01:25:48;1.10;99.90
13482;DHT22;6813;60.352;15.746;2023-03-19T01:28:14;1.10;99.90
13482;DHT22;6813;60.352;15.746;2023-03-19T01:30:40;1.10;99.90
13482;DHT22;6813;60.352;15.746;2023-03-19T01:33:06;1.20;99.90
13482;DHT22;6813;60.352;15.746;2023-03-19T01:35:32;1.20;99.90
13482;DHT22;6813;60.352;15.746;2023-03-19T01:37:57;1.20;99.90
13482;DHT22;6813;60.352;15.746;2023-03-19T01:40:23;1.20;99.90
13482;DHT22;6813;60.352;15.746;2023-03-19T01:45:35;1.20;99.90
13482;DHT22;6813;60.352;15.746;2023-03-19T01:48:01;1.20;99.90
13482;DHT22;6813;60.352;15.746;2023-03-19T01:50:44;1.10;99.90
13482;DHT22;6813;60.352;15.746;2023-03-19T01:53:11;0.90;99.90
13482;DHT22;6813;60.352;15.746;2023-03-19T01:55:38;0.70;99.90
13482;DHT22;6813;60.352;15.746;2023-03-19T01:58:05;0.60;99.90
13482;DHT22;6813;60.352;15.746;2023-03-19T02:00:34;0.60;99.90
13482;DHT22;6813;60.352;15.746;2023-03-19T02:03:00;0.60;99.90
13482;DHT22;6813;60.352;15.746;2023-03-19T02:05:26;0.70;99.90
13482;DHT22;6813;60.352;15.746;2023-03-19T02:07:57;0.70;99.90
13482;DHT22;6813;60.352;15.746;2023-03-19T02:10:24;0.60;99.90
13482;DHT22;6813;60.352;15.746;2023-03-19T02:12:50;0.70;99.90
13482;DHT22;6813;60.352;15.746;2023-03-19T02:15:16;0.70;99.90
13482;DHT22;6813;60.352;15.746;2023-03-19T02:17:42;0.70;99.90
13482;DHT22;6813;60.352;15.746;2023-03-19T02:20:48;0.60;99.90
13482;DHT22;6813;60.352;15.746;2023-03-19T02:26:12;0.50;99.90
13482;DHT22;6813;60.352;15.746;2023-03-19T02:28:41;0.50;99.90
13482;DHT22;6813;60.352;15.746;2023-03-19T02:31:09;0.60;99.90
13482;DHT22;6813;60.352;15.746;2023-03-19T02:33:35;0.50;99.90
13482;DHT22;6813;60.352;15.746;2023-03-19T02:36:03;0.50;99.90
13482;DHT22;6813;60.352;15.746;2023-03-19T02:38:32;0.50;99.90
13482;DHT22;6813;60.352;15.746;2023-03-19T02:41:03;0.50;99.90
13482;DHT22;6813;60.352;15.746;2023-03-19T02:43:34;0.50;99.90
13482;DHT22;6813;60.352;15.746;2023-03-19T02:46:02;0.50;99.90
13482;DHT22;6813;60.352;15.746;2023-03-19T02:48:28;0.50;99.90
13482;DHT22;6813;60.352;15.746;2023-03-19T02:50:54;0.60;99.90
13482;DHT22;6813;60.352;15.746;2023-03-19T02:53:20;0.60;99.90
13482;DHT22;6813;60.352;15.746;2023-03-19T02:55:46;0.70;99.90
13482;DHT22;6813;60.352;15.746;2023-03-19T02:58:12;0.70;99.90
13482;DHT22;6813;60.352;15.746;2023-03-19T03:00:38;0.70;99.90
13482;DHT22;6813;60.352;15.746;2023-03-19T03:03:05;0.70;99.90
13482;DHT22;6813;60.352;15.746;2023-03-19T03:05:34;0.70;99.90
13482;DHT22;6813;60.352;15.746;2023-03-19T03:08:00;0.70;99.90
13482;DHT22;6813;60.352;15.746;2023-03-19T03:10:27;0.70;99.90
13482;DHT22;6813;60.352;15.746;2023-03-19T03:12:53;0.70;99.90
13482;DHT22;6813;60.352;15.746;2023-03-19T03:15:19;0.70;99.90
13482;DHT22;6813;60.352;15.746;2023-03-19T03:17:46;0.70;99.90
13482;DHT22;6813;60.352;15.746;2023-03-19T03:20:13;0.70;99.90
13482;DHT22;6813;60.352;15.746;2023-03-19T03:22:41;0.70;99.90
13482;DHT22;6813;60.352;15.746;2023-03-19T03:25:07;0.70;99.90
13482;DHT22;6813;60.352;15.746;2023-03-19T03:27:34;0.70;99.90
13482;DHT22;6813;60.352;15.746;2023-03-19T03:30:02;0.70;99.90
13482;DHT22;6813;60.352;15.746;2023-03-19T03:32:27;0.70;99.90
13482;DHT22;6813;60.352;15.746;2023-03-19T03:34:53;0.70;99.90
13482;DHT22;6813;60.352;15.746;2023-03-19T03:37:19;0.60;99.90
13482;DHT22;6813;60.352;15.746;2023-03-19T03:39:44;0.60;99.90
13482;DHT22;6813;60.352;15.746;2023-03-19T03:42:10;0.60;99.90
13482;DHT22;6813;60.352;15.746;2023-03-19T03:44:36;0.70;99.90
13482;DHT22;6813;60.352;15.746;2023-03-19T03:47:02;0.70;99.90
13482;DHT22;6813;60.352;15.746;2023-03-19T03:49:28;0.70;99.90
13482;DHT22;6813;60.352;15.746;2023-03-19T03:51:54;0.70;99.90
13482;DHT22;6813;60.352;15.746;2023-03-19T03:54:20;0.70;99.90
13482;DHT22;6813;60.352;15.746;2023-03-19T03:56:46;0.70;99.90
13482;DHT22;6813;60.352;15.746;2023-03-19T03:59:11;0.70;99.90
13482;DHT22;6813;60.352;15.746;2023-03-19T04:01:37;0.70;99.90
13482;DHT22;6813;60.352;15.746;2023-03-19T04:04:03;0.80;99.90
13482;DHT22;6813;60.352;15.746;2023-03-19T04:06:29;0.80;99.90
13482;DHT22;6813;60.352;15.746;2023-03-19T04:08:55;0.80;99.90
13482;DHT22;6813;60.352;15.746;2023-03-19T04:11:21;0.80;99.90
13482;DHT22;6813;60.352;15.746;2023-03-19T04:13:47;0.80;99.90
13482;DHT22;6813;60.352;15.746;2023-03-19T04:16:13;0.70;99.90
13482;DHT22;6813;60.352;15.746;2023-03-19T04:18:40;0.70;99.90
13482;DHT22;6813;60.352;15.746;2023-03-19T04:21:06;0.60;99.90
13482;DHT22;6813;60.352;15.746;2023-03-19T04:23:33;0.60;99.90
13482;DHT22;6813;60.352;15.746;2023-03-19T04:26:01;0.70;99.90
13482;DHT22;6813;60.352;15.746;2023-03-19T04:28:27;0.70;99.90
13482;DHT22;6813;60.352;15.746;2023-03-19T04:31:05;0.60;99.90
13482;DHT22;6813;60.352;15.746;2023-03-19T04:33:31;0.60;99.90
13482;DHT22;6813;60.352;15.746;2023-03-19T04:35:57;0.70;99.90
13482;DHT22;6813;60.352;15.746;2023-03-19T04:38:24;0.70;99.90
13482;DHT22;6813;60.352;15.746;2023-03-19T04:40:54;0.70;99.90
13482;DHT22;6813;60.352;15.746;2023-03-19T04:43:21;0.70;99.90
13482;DHT22;6813;60.352;15.746;2023-03-19T04:45:48;0.70;99.90
13482;DHT22;6813;60.352;15.746;2023-03-19T04:48:13;0.80;99.90
13482;DHT22;6813;60.352;15.746;2023-03-19T04:50:40;0.70;99.90
13482;DHT22;6813;60.352;15.746;2023-03-19T04:53:06;0.70;99.90
13482;DHT22;6813;60.352;15.746;2023-03-19T04:55:32;0.70;99.90
13482;DHT22;6813;60.352;15.746;2023-03-19T04:57:58;0.80;99.90
13482;DHT22;6813;60.352;15.746;2023-03-19T05:00:24;0.80;99.90
13482;DHT22;6813;60.352;15.746;2023-03-19T05:02:50;0.70;99.90
13482;DHT22;6813;60.352;15.746;2023-03-19T05:05:19;0.70;99.90
13482;DHT22;6813;60.352;15.746;2023-03-19T05:07:44;0.70;99.90
13482;DHT22;6813;60.352;15.746;2023-03-19T05:10:10;0.50;99.90
13482;DHT22;6813;60.352;15.746;2023-03-19T05:12:36;0.60;99.90
13482;DHT22;6813;60.352;15.746;2023-03-19T05:15:02;0.60;99.90
13482;DHT22;6813;60.352;15.746;2023-03-19T05:17:35;0.60;99.90
13482;DHT22;6813;60.352;15.746;2023-03-19T05:20:01;0.50;99.90
13482;DHT22;6813;60.352;15.746;2023-03-19T05:22:27;0.60;99.90
13482;DHT22;6813;60.352;15.746;2023-03-19T05:24:53;0.60;99.90
13482;DHT22;6813;60.352;15.746;2023-03-19T05:27:19;0.60;99.90
13482;DHT22;6813;60.352;15.746;2023-03-19T05:29:51;0.60;99.90
13482;DHT22;6813;60.352;15.746;2023-03-19T05:32:20;0.60;99.90
13482;DHT22;6813;60.352;15.746;2023-03-19T05:34:46;0.50;99.90
13482;DHT22;6813;60.352;15.746;2023-03-19T05:37:12;0.50;99.90
13482;DHT22;6813;60.352;15.746;2023-03-19T05:39:38;0.60;99.90
13482;DHT22;6813;60.352;15.746;2023-03-19T05:42:05;0.70;99.90
13482;DHT22;6813;60.352;15.746;2023-03-19T05:44:35;0.70;99.90
13482;DHT22;6813;60.352;15.746;2023-03-19T05:47:01;0.70;99.90
13482;DHT22;6813;60.352;15.746;2023-03-19T05:49:27;0.70;99.90
13482;DHT22;6813;60.352;15.746;2023-03-19T05:51:52;0.70;99.90
13482;DHT22;6813;60.352;15.746;2023-03-19T05:54:18;0.80;99.90
13482;DHT22;6813;60.352;15.746;2023-03-19T05:56:44;0.90;99.90
13482;DHT22;6813;60.352;15.746;2023-03-19T05:59:10;0.90;99.90
13482;DHT22;6813;60.352;15.746;2023-03-19T06:01:35;0.90;99.90
13482;DHT22;6813;60.352;15.746;2023-03-19T06:04:01;1.00;99.90
13482;DHT22;6813;60.352;15.746;2023-03-19T06:06:27;1.10;99.90
13482;DHT22;6813;60.352;15.746;2023-03-19T06:08:52;1.20;99.90
13482;DHT22;6813;60.352;15.746;2023-03-19T06:11:18;1.40;99.90
13482;DHT22;6813;60.352;15.746;2023-03-19T06:13:44;1.50;99.90
13482;DHT22;6813;60.352;15.746;2023-03-19T06:16:10;1.70;99.90
13482;DHT22;6813;60.352;15.746;2023-03-19T06:18:36;1.70;99.90
13482;DHT22;6813;60.352;15.746;2023-03-19T06:21:03;1.90;99.90
13482;DHT22;6813;60.352;15.746;2023-03-19T06:23:29;2.00;99.90
13482;DHT22;6813;60.352;15.746;2023-03-19T06:25:55;2.20;99.90
13482;DHT22;6813;60.352;15.746;2023-03-19T06:28:21;2.30;99.90
13482;DHT22;6813;60.352;15.746;2023-03-19T06:30:47;2.60;99.90
13482;DHT22;6813;60.352;15.746;2023-03-19T06:33:13;3.00;99.90
13482;DHT22;6813;60.352;15.746;2023-03-19T06:35:39;3.30;99.90
13482;DHT22;6813;60.352;15.746;2023-03-19T06:38:05;3.70;99.90
13482;DHT22;6813;60.352;15.746;2023-03-19T06:40:32;4.10;99.90
13482;DHT22;6813;60.352;15.746;2023-03-19T06:42:58;4.50;99.90
13482;DHT22;6813;60.352;15.746;2023-03-19T06:45:23;4.80;99.90
13482;DHT22;6813;60.352;15.746;2023-03-19T06:47:49;5.30;99.90
13482;DHT22;6813;60.352;15.746;2023-03-19T06:50:16;5.60;99.90
13482;DHT22;6813;60.352;15.746;2023-03-19T06:52:43;5.90;99.90
13482;DHT22;6813;60.352;15.746;2023-03-19T06:55:09;6.30;99.90
13482;DHT22;6813;60.352;15.746;2023-03-19T06:57:35;6.60;99.90
13482;DHT22;6813;60.352;15.746;2023-03-19T07:00:02;7.00;99.90
13482;DHT22;6813;60.352;15.746;2023-03-19T07:02:28;7.10;99.90
13482;DHT22;6813;60.352;15.746;2023-03-19T07:04:54;7.30;99.90
13482;DHT22;6813;60.352;15.746;2023-03-19T07:07:20;7.60;99.90
13482;DHT22;6813;60.352;15.746;2023-03-19T07:09:45;7.90;99.90
13482;DHT22;6813;60.352;15.746;2023-03-19T07:12:11;8.10;99.90
13482;DHT22;6813;60.352;15.746;2023-03-19T07:14:37;8.30;99.90
13482;DHT22;6813;60.352;15.746;2023-03-19T07:17:04;8.70;99.90
13482;DHT22;6813;60.352;15.746;2023-03-19T07:19:30;9.00;99.90
13482;DHT22;6813;60.352;15.746;2023-03-19T07:21:55;9.30;99.90
13482;DHT22;6813;60.352;15.746;2023-03-19T07:24:21;9.50;99.90
13482;DHT22;6813;60.352;15.746;2023-03-19T07:26:47;9.70;99.90
13482;DHT22;6813;60.352;15.746;2023-03-19T07:29:13;9.80;99.90
13482;DHT22;6813;60.352;15.746;2023-03-19T07:31:39;10.10;99.90
13482;DHT22;6813;60.352;15.746;2023-03-19T07:34:05;10.30;99.90
13482;DHT22;6813;60.352;15.746;2023-03-19T07:36:31;10.30;99.90
13482;DHT22;6813;60.352;15.746;2023-03-19T07:38:56;10.50;99.90
13482;DHT22;6813;60.352;15.746;2023-03-19T07:41:25;10.40;99.70
13482;DHT22;6813;60.352;15.746;2023-03-19T07:43:51;10.60;99.40
13482;DHT22;6813;60.352;15.746;2023-03-19T07:46:17;10.80;99.90
13482;DHT22;6813;60.352;15.746;2023-03-19T07:48:43;11.00;99.10
13482;DHT22;6813;60.352;15.746;2023-03-19T07:51:09;11.20;98.60
13482;DHT22;6813;60.352;15.746;2023-03-19T07:53:34;11.30;98.50
13482;DHT22;6813;60.352;15.746;2023-03-19T07:56:01;11.30;97.50
13482;DHT22;6813;60.352;15.746;2023-03-19T07:58:26;11.40;98.10
13482;DHT22;6813;60.352;15.746;2023-03-19T08:00:53;11.50;97.60
13482;DHT22;6813;60.352;15.746;2023-03-19T08:03:18;11.70;97.20
13482;DHT22;6813;60.352;15.746;2023-03-19T08:05:48;11.90;98.00
13482;DHT22;6813;60.352;15.746;2023-03-19T08:08:14;11.90;94.90
13482;DHT22;6813;60.352;15.746;2023-03-19T08:10:40;11.80;96.00
13482;DHT22;6813;60.352;15.746;2023-03-19T08:13:06;11.90;93.50
13482;DHT22;6813;60.352;15.746;2023-03-19T08:15:32;11.70;93.00
13482;DHT22;6813;60.352;15.746;2023-03-19T08:17:59;11.60;94.00
13482;DHT22;6813;60.352;15.746;2023-03-19T08:20:25;11.50;93.20
13482;DHT22;6813;60.352;15.746;2023-03-19T08:22:51;11.30;93.40
13482;DHT22;6813;60.352;15.746;2023-03-19T08:25:17;11.20;93.60
13482;DHT22;6813;60.352;15.746;2023-03-19T08:27:49;11.30;93.70
13482;DHT22;6813;60.352;15.746;2023-03-19T08:30:16;11.40;93.30
13482;DHT22;6813;60.352;15.746;2023-03-19T08:32:42;11.10;92.10
13482;DHT22;6813;60.352;15.746;2023-03-19T08:35:11;10.90;92.00
13482;DHT22;6813;60.352;15.746;2023-03-19T08:37:37;10.60;92.50
13482;DHT22;6813;60.352;15.746;2023-03-19T08:40:12;10.40;92.10
13482;DHT22;6813;60.352;15.746;2023-03-19T08:42:38;10.10;92.60
13482;DHT22;6813;60.352;15.746;2023-03-19T08:45:08;10.10;93.50
13482;DHT22;6813;60.352;15.746;2023-03-19T08:47:52;10.00;93.50
13482;DHT22;6813;60.352;15.746;2023-03-19T08:50:23;9.80;93.50
13482;DHT22;6813;60.352;15.746;2023-03-19T08:52:49;9.60;94.70
13482;DHT22;6813;60.352;15.746;2023-03-19T08:55:18;9.70;94.90
13482;DHT22;6813;60.352;15.746;2023-03-19T08:57:43;9.90;94.00
13482;DHT22;6813;60.352;15.746;2023-03-19T09:00:10;10.20;93.40
13482;DHT22;6813;60.352;15.746;2023-03-19T09:02:37;10.30;92.10
13482;DHT22;6813;60.352;15.746;2023-03-19T09:05:03;10.50;92.80
13482;DHT22;6813;60.352;15.746;2023-03-19T09:07:32;10.20;91.80
13482;DHT22;6813;60.352;15.746;2023-03-19T09:09:57;10.00;92.90
13482;DHT22;6813;60.352;15.746;2023-03-19T09:12:23;10.10;93.70
13482;DHT22;6813;60.352;15.746;2023-03-19T09:14:52;10.20;93.70
13482;DHT22;6813;60.352;15.746;2023-03-19T09:17:17;10.10;92.60
13482;DHT22;6813;60.352;15.746;2023-03-19T09:19:43;9.80;93.00
13482;DHT22;6813;60.352;15.746;2023-03-19T09:22:09;9.40;93.50
13482;DHT22;6813;60.352;15.746;2023-03-19T09:24:35;9.30;93.90
13482;DHT22;6813;60.352;15.746;2023-03-19T09:27:01;9.10;94.70
13482;DHT22;6813;60.352;15.746;2023-03-19T09:29:27;9.10;96.00
13482;DHT22;6813;60.352;15.746;2023-03-19T09:31:52;9.20;94.70
13482;DHT22;6813;60.352;15.746;2023-03-19T09:34:18;9.10;94.50
13482;DHT22;6813;60.352;15.746;2023-03-19T09:36:44;9.20;95.40
13482;DHT22;6813;60.352;15.746;2023-03-19T09:39:10;9.40;94.60
13482;DHT22;6813;60.352;15.746;2023-03-19T09:44:27;8.90;95.10
13482;DHT22;6813;60.352;15.746;2023-03-19T09:47:06;8.50;95.30
13482;DHT22;6813;60.352;15.746;2023-03-19T09:49:45;8.20;96.00
13482;DHT22;6813;60.352;15.746;2023-03-19T09:55:02;7.50;97.70
13482;DHT22;6813;60.352;15.746;2023-03-19T09:57:37;7.30;98.10
13482;DHT22;6813;60.352;15.746;2023-03-19T10:00:31;7.30;98.40
13482;DHT22;6813;60.352;15.746;2023-03-19T10:05:43;7.50;98.50
13482;DHT22;6813;60.352;15.746;2023-03-19T10:16:30;6.90;99.70
13482;DHT22;6813;60.352;15.746;2023-03-19T10:19:01;6.90;99.90
13482;DHT22;6813;60.352;15.746;2023-03-19T10:24:11;6.90;99.90
13482;DHT22;6813;60.352;15.746;2023-03-19T10:26:38;6.90;99.90
13482;DHT22;6813;60.352;15.746;2023-03-19T10:29:15;7.10;99.90
13482;DHT22;6813;60.352;15.746;2023-03-19T10:32:26;7.40;99.90
13482;DHT22;6813;60.352;15.746;2023-03-19T10:34:56;7.70;99.90
13482;DHT22;6813;60.352;15.746;2023-03-19T10:37:27;7.90;99.90
13482;DHT22;6813;60.352;15.746;2023-03-19T10:39:58;8.00;99.90
13482;DHT22;6813;60.352;15.746;2023-03-19T10:42:49;8.10;99.90
13482;DHT22;6813;60.352;15.746;2023-03-19T10:45:27;8.10;99.70
13482;DHT22;6813;60.352;15.746;2023-03-19T10:47:58;7.90;99.70
13482;DHT22;6813;60.352;15.746;2023-03-19T10:50:35;7.80;99.90
13482;DHT22;6813;60.352;15.746;2023-03-19T10:58:19;8.00;99.90
13482;DHT22;6813;60.352;15.746;2023-03-19T11:00:47;8.10;99.90
13482;DHT22;6813;60.352;15.746;2023-03-19T11:06:18;8.00;99.90
13482;DHT22;6813;60.352;15.746;2023-03-19T11:08:55;7.90;99.90
13482;DHT22;6813;60.352;15.746;2023-03-19T11:11:26;7.70;99.90
13482;DHT22;6813;60.352;15.746;2023-03-19T11:13:57;7.60;99.90
13482;DHT22;6813;60.352;15.746;2023-03-19T11:16:23;7.60;99.90
13482;DHT22;6813;60.352;15.746;2023-03-19T11:18:48;7.70;99.90
13482;DHT22;6813;60.352;15.746;2023-03-19T11:21:28;7.70;99.90
13482;DHT22;6813;60.352;15.746;2023-03-19T11:24:08;7.70;99.90
13482;DHT22;6813;60.352;15.746;2023-03-19T11:26:36;7.60;99.90
13482;DHT22;6813;60.352;15.746;2023-03-19T11:29:03;7.70;99.90
13482;DHT22;6813;60.352;15.746;2023-03-19T11:31:38;7.70;99.90
13482;DHT22;6813;60.352;15.746;2023-03-19T11:35:13;8.00;99.90
13482;DHT22;6813;60.352;15.746;2023-03-19T11:50:59;8.60;99.90
13482;DHT22;6813;60.352;15.746;2023-03-19T11:53:49;8.50;99.90
13482;DHT22;6813;60.352;15.746;2023-03-19T11:59:36;8.70;99.90
13482;DHT22;6813;60.352;15.746;2023-03-19T12:11:23;9.40;99.90
13482;DHT22;6813;60.352;15.746;2023-03-19T12:22:38;8.80;99.90
13482;DHT22;6813;60.352;15.746;2023-03-19T12:27:46;8.90;99.90
13482;DHT22;6813;60.352;15.746;2023-03-19T12:33:20;8.70;99.90
13482;DHT22;6813;60.352;15.746;2023-03-19T12:35:54;8.60;99.90
13482;DHT22;6813;60.352;15.746;2023-03-19T12:44:47;8.60;99.90
13482;DHT22;6813;60.352;15.746;2023-03-19T12:47:23;8.70;99.90
13482;DHT22;6813;60.352;15.746;2023-03-19T12:50:02;8.70;99.90
13482;DHT22;6813;60.352;15.746;2023-03-19T12:52:38;8.80;99.90
13482;DHT22;6813;60.352;15.746;2023-03-19T12:58:21;9.10;99.90
13482;DHT22;6813;60.352;15.746;2023-03-19T13:00:58;9.20;99.90
13482;DHT22;6813;60.352;15.746;2023-03-19T13:06:36;9.10;99.90
13482;DHT22;6813;60.352;15.746;2023-03-19T13:17:37;9.50;99.90
13482;DHT22;6813;60.352;15.746;2023-03-19T13:23:24;9.40;99.90
13482;DHT22;6813;60.352;15.746;2023-03-19T13:25:53;9.00;99.90
13482;DHT22;6813;60.352;15.746;2023-03-19T13:28:30;8.60;99.90
13482;DHT22;6813;60.352;15.746;2023-03-19T13:30:59;8.70;99.90
13482;DHT22;6813;60.352;15.746;2023-03-19T13:33:26;8.30;99.90
13482;DHT22;6813;60.352;15.746;2023-03-19T13:35:54;8.20;99.90
13482;DHT22;6813;60.352;15.746;2023-03-19T13:38:33;8.50;99.90
13482;DHT22;6813;60.352;15.746;2023-03-19T13:41:02;8.60;99.90
13482;DHT22;6813;60.352;15.746;2023-03-19T13:48:35;8.30;99.90
13482;DHT22;6813;60.352;15.746;2023-03-19T13:51:22;8.30;99.90
13482;DHT22;6813;60.352;15.746;2023-03-19T13:54:15;8.10;99.90
13482;DHT22;6813;60.352;15.746;2023-03-19T13:57:03;8.10;99.90
13482;DHT22;6813;60.352;15.746;2023-03-19T13:59:39;8.00;99.90
13482;DHT22;6813;60.352;15.746;2023-03-19T14:07:22;8.20;99.90
13482;DHT22;6813;60.352;15.746;2023-03-19T14:12:40;8.60;99.90
13482;DHT22;6813;60.352;15.746;2023-03-19T14:17:54;8.80;99.90
13482;DHT22;6813;60.352;15.746;2023-03-19T14:20:28;8.90;99.90
13482;DHT22;6813;60.352;15.746;2023-03-19T14:28:17;8.80;99.90
13482;DHT22;6813;60.352;15.746;2023-03-19T14:30:46;8.70;99.90
13482;DHT22;6813;60.352;15.746;2023-03-19T14:33:24;8.90;99.90
13482;DHT22;6813;60.352;15.746;2023-03-19T14:35:51;9.20;99.90
13482;DHT22;6813;60.352;15.746;2023-03-19T14:40:50;9.30;99.90
13482;DHT22;6813;60.352;15.746;2023-03-19T14:57:31;9.30;99.90
13482;DHT22;6813;60.352;15.746;2023-03-19T15:00:00;9.10;99.90
13482;DHT22;6813;60.352;15.746;2023-03-19T15:02:39;8.40;99.90
13482;DHT22;6813;60.352;15.746;2023-03-19T15:05:32;8.20;99.90
13482;DHT22;6813;60.352;15.746;2023-03-19T15:08:03;7.90;99.90
13482;DHT22;6813;60.352;15.746;2023-03-19T15:10:39;7.80;99.90
13482;DHT22;6813;60.352;15.746;2023-03-19T15:18:43;7.70;99.90
13482;DHT22;6813;60.352;15.746;2023-03-19T15:21:09;7.80;99.90
13482;DHT22;6813;60.352;15.746;2023-03-19T15:23:36;8.00;99.90
13482;DHT22;6813;60.352;15.746;2023-03-19T15:26:03;7.90;99.90
13482;DHT22;6813;60.352;15.746;2023-03-19T15:28:47;8.10;99.90
13482;DHT22;6813;60.352;15.746;2023-03-19T15:31:13;8.40;99.90
13482;DHT22;6813;60.352;15.746;2023-03-19T15:33:40;8.60;99.90
13482;DHT22;6813;60.352;15.746;2023-03-19T15:36:30;8.40;99.90
13482;DHT22;6813;60.352;15.746;2023-03-19T15:39:06;8.60;99.90
13482;DHT22;6813;60.352;15.746;2023-03-19T15:41:38;8.50;99.90
13482;DHT22;6813;60.352;15.746;2023-03-19T15:44:10;8.20;99.90
13482;DHT22;6813;60.352;15.746;2023-03-19T15:46:39;8.00;99.90
13482;DHT22;6813;60.352;15.746;2023-03-19T15:51:38;7.60;99.90
13482;DHT22;6813;60.352;15.746;2023-03-19T15:54:04;7.50;99.90
13482;DHT22;6813;60.352;15.746;2023-03-19T15:56:31;7.50;99.90
13482;DHT22;6813;60.352;15.746;2023-03-19T15:58:57;7.40;99.90
13482;DHT22;6813;60.352;15.746;2023-03-19T16:01:25;7.20;99.90
13482;DHT22;6813;60.352;15.746;2023-03-19T16:04:01;7.20;99.90
13482;DHT22;6813;60.352;15.746;2023-03-19T16:06:31;7.20;99.90
13482;DHT22;6813;60.352;15.746;2023-03-19T16:11:41;7.50;99.90
13482;DHT22;6813;60.352;15.746;2023-03-19T16:16:39;7.70;99.90
13482;DHT22;6813;60.352;15.746;2023-03-19T16:19:22;7.80;99.90
13482;DHT22;6813;60.352;15.746;2023-03-19T16:21:51;8.00;99.90
13482;DHT22;6813;60.352;15.746;2023-03-19T16:24:26;8.20;99.90
13482;DHT22;6813;60.352;15.746;2023-03-19T16:26:55;8.30;99.90
13482;DHT22;6813;60.352;15.746;2023-03-19T16:29:37;8.50;99.90
13482;DHT22;6813;60.352;15.746;2023-03-19T16:42:54;8.60;99.90
13482;DHT22;6813;60.352;15.746;2023-03-19T16:45:31;8.70;99.90
13482;DHT22;6813;60.352;15.746;2023-03-19T16:48:01;8.60;99.90
13482;DHT22;6813;60.352;15.746;2023-03-19T16:50:35;8.20;99.90
13482;DHT22;6813;60.352;15.746;2023-03-19T16:53:36;8.10;99.90
13482;DHT22;6813;60.352;15.746;2023-03-19T16:55:56;7.50;99.90
13482;DHT22;6813;60.352;15.746;2023-03-19T16:58:30;7.40;99.90
13482;DHT22;6813;60.352;15.746;2023-03-19T17:00:56;7.00;99.90
13482;DHT22;6813;60.352;15.746;2023-03-19T17:03:22;6.70;99.90
13482;DHT22;6813;60.352;15.746;2023-03-19T17:05:48;6.80;99.90
13482;DHT22;6813;60.352;15.746;2023-03-19T17:08:14;6.70;99.90
13482;DHT22;6813;60.352;15.746;2023-03-19T17:10:44;6.60;99.90
13482;DHT22;6813;60.352;15.746;2023-03-19T17:13:23;6.70;99.90
13482;DHT22;6813;60.352;15.746;2023-03-19T17:15:55;6.70;99.90
13482;DHT22;6813;60.352;15.746;2023-03-19T17:18:24;6.70;99.90
13482;DHT22;6813;60.352;15.746;2023-03-19T17:21:05;6.50;99.90
13482;DHT22;6813;60.352;15.746;2023-03-19T17:23:32;6.50;99.90
13482;DHT22;6813;60.352;15.746;2023-03-19T17:25:59;6.70;99.90
13482;DHT22;6813;60.352;15.746;2023-03-19T17:28:27;6.60;99.90
13482;DHT22;6813;60.352;15.746;2023-03-19T17:30:53;6.70;99.90
13482;DHT22;6813;60.352;15.746;2023-03-19T17:33:27;6.90;99.90
13482;DHT22;6813;60.352;15.746;2023-03-19T17:35:54;7.10;99.90
13482;DHT22;6813;60.352;15.746;2023-03-19T17:38:21;7.10;99.90
13482;DHT22;6813;60.352;15.746;2023-03-19T17:40:47;6.70;99.90
13482;DHT22;6813;60.352;15.746;2023-03-19T17:43:13;6.50;99.90
13482;DHT22;6813;60.352;15.746;2023-03-19T17:45:42;6.50;99.90
13482;DHT22;6813;60.352;15.746;2023-03-19T17:48:23;6.40;99.90
13482;DHT22;6813;60.352;15.746;2023-03-19T17:50:50;6.40;99.90
13482;DHT22;6813;60.352;15.746;2023-03-19T17:53:16;6.20;99.90
13482;DHT22;6813;60.352;15.746;2023-03-19T17:55:43;6.20;99.90
13482;DHT22;6813;60.352;15.746;2023-03-19T17:58:20;6.10;99.90
13482;DHT22;6813;60.352;15.746;2023-03-19T18:00:48;6.20;99.90
13482;DHT22;6813;60.352;15.746;2023-03-19T18:03:16;5.90;99.90
13482;DHT22;6813;60.352;15.746;2023-03-19T18:05:42;5.90;99.90
13482;DHT22;6813;60.352;15.746;2023-03-19T18:08:13;5.70;99.90
13482;DHT22;6813;60.352;15.746;2023-03-19T18:10:39;5.80;99.90
13482;DHT22;6813;60.352;15.746;2023-03-19T18:13:05;5.80;99.90
13482;DHT22;6813;60.352;15.746;2023-03-19T18:15:32;5.70;99.90
13482;DHT22;6813;60.352;15.746;2023-03-19T18:18:04;5.60;99.90
13482;DHT22;6813;60.352;15.746;2023-03-19T18:20:36;5.80;99.90
13482;DHT22;6813;60.352;15.746;2023-03-19T18:23:06;6.00;99.90
13482;DHT22;6813;60.352;15.746;2023-03-19T18:25:32;5.90;99.90
13482;DHT22;6813;60.352;15.746;2023-03-19T18:28:01;6.00;99.90
13482;DHT22;6813;60.352;15.746;2023-03-19T18:30:29;6.00;99.90
13482;DHT22;6813;60.352;15.746;2023-03-19T18:32:58;5.90;99.90
13482;DHT22;6813;60.352;15.746;2023-03-19T18:35:29;5.90;99.90